メインページ
METAR-TAF:

METAR-TAF

空港 :

ブリュッセル, ベルギー

ブリュッセル空港

緯度: 50-54N, 経度: 004-32E, 海抜: 55m

現時点の気象観測

当レポートは27分前の15:20(UTC)に作成
南/南東の風 5kt、から南西の間で変化する
気温 28°C
湿度 27%
気圧 1024 hPa
視程10km以上
1,500メートル以下は雲なし、積乱雲なし

METAR: EBBR 191520Z 16005KT 100V220 CAVOK 28/07 Q1024 NOSIG

時間: 17:47 (15:47 UTC)

予報

当レポートは4時間39分前の11:08(UTC)に作成
予報は19日の 12時(UTC)から 20日の 18時(UTC)まで有効
南/南東の風 7kt
視程10km以上
1,500メートル以下は雲なし、積乱雲なし

TAF: EBBR 191108Z 1912/2018 16007KT CAVOK

4,000以上の空港の気象観測と天気予報(METAR報とTAF報)

利用可能な観測所は地図上に黄色い丸と赤い丸で示す。

丸の上にカーソルを重ねると観測所名を参照できる。

次にクリックすると気象観測と天気予報を参照できる。

マップの切り替え:黒色「×」印の緑ボタンをクリックして拡大、「-」印の緑ボタンをクリックして縮小、緑色の三角印をクリックして隣りの地図に切り替え


METAR-TAF: